createdAt,value
2018-09-14T00:00:46.068Z,22.8
2018-09-14T00:10:48.240Z,22.8
2018-09-14T00:20:50.339Z,22.8
2018-09-14T00:30:52.244Z,22.7
2018-09-14T00:40:54.080Z,22.7
2018-09-14T00:50:55.977Z,22.7
2018-09-14T01:00:57.869Z,22.7
2018-09-14T01:11:00.160Z,22.6
2018-09-14T01:21:01.869Z,22.6
2018-09-14T01:31:03.596Z,22.6
2018-09-14T01:41:05.395Z,22.6
2018-09-14T01:51:07.479Z,22.5
2018-09-14T02:01:09.513Z,22.5
2018-09-14T02:11:11.849Z,22.5
2018-09-14T02:21:13.589Z,22.5
2018-09-14T02:31:15.703Z,22.5
2018-09-14T02:41:17.885Z,22.5
2018-09-14T02:51:19.515Z,22.5
2018-09-14T03:01:21.172Z,22.5
2018-09-14T03:11:23.412Z,22.4
2018-09-14T03:21:25.079Z,22.4
2018-09-14T03:31:27.310Z,22.4
2018-09-14T03:41:29.287Z,22.4
2018-09-14T03:51:31.168Z,22.4
2018-09-14T04:01:32.986Z,22.4
2018-09-14T04:11:34.339Z,22.3
2018-09-14T04:21:36.250Z,22.3
2018-09-14T04:31:38.492Z,22.4
2018-09-14T04:41:40.082Z,22.4
2018-09-14T04:51:41.853Z,22.4
2018-09-14T05:01:44.094Z,22.4
2018-09-14T05:11:45.884Z,22.5
2018-09-14T05:21:47.969Z,22.5
2018-09-14T05:31:49.990Z,22.6
2018-09-14T05:41:51.920Z,22.7
2018-09-14T05:51:53.891Z,22.7
2018-09-14T06:01:54.738Z,22.7
2018-09-14T06:11:57.037Z,22.7
2018-09-14T06:21:58.726Z,22.8
2018-09-14T06:32:00.797Z,22.7
2018-09-14T06:42:02.656Z,22.7
2018-09-14T06:52:04.620Z,22.7
2018-09-14T07:02:06.451Z,22.7
2018-09-14T07:12:08.166Z,22.7
2018-09-14T07:22:10.188Z,22.8
2018-09-14T07:32:11.796Z,22.8
2018-09-14T07:42:13.937Z,22.8
2018-09-14T07:52:16.213Z,22.9
2018-09-14T08:02:17.712Z,22.9
2018-09-14T08:12:19.853Z,22.9
2018-09-14T08:22:21.676Z,22.9
2018-09-14T08:32:23.935Z,23
2018-09-14T08:42:25.451Z,23
2018-09-14T08:52:27.466Z,23
2018-09-14T09:02:29.034Z,23
2018-09-14T09:12:30.984Z,23
2018-09-14T09:22:33.121Z,23
2018-09-14T09:32:35.206Z,23.1
2018-09-14T09:42:37.274Z,23.1
2018-09-14T09:52:40.434Z,23.2
2018-09-14T10:02:43.003Z,23.2
2018-09-14T10:12:44.649Z,23.3
2018-09-14T10:22:46.883Z,23.3
2018-09-14T10:32:48.674Z,23.3
2018-09-14T10:42:50.515Z,23.3
2018-09-14T10:52:52.024Z,23.3
2018-09-14T11:02:54.013Z,23.3
2018-09-14T11:12:55.960Z,23.4
2018-09-14T11:22:57.594Z,23.4
2018-09-14T11:32:58.918Z,23.4
2018-09-14T11:43:00.878Z,23.4
2018-09-14T11:53:02.637Z,23.4
2018-09-14T12:03:04.553Z,23.4
2018-09-14T12:13:06.480Z,23.4
2018-09-14T12:23:08.076Z,23.4
2018-09-14T12:33:10.481Z,23.4
2018-09-14T12:43:12.607Z,23.4
2018-09-14T12:53:14.738Z,23.4
2018-09-14T13:03:16.987Z,24
2018-09-14T13:13:19.245Z,24.3
2018-09-14T13:23:21.578Z,24.6
2018-09-14T13:33:23.712Z,24.6
2018-09-14T13:43:25.720Z,24.6
2018-09-14T13:53:27.569Z,24.4
2018-09-14T14:03:29.565Z,24.8
2018-09-14T14:13:31.405Z,24.9
2018-09-14T14:23:33.493Z,24.7
2018-09-14T14:33:35.502Z,25
2018-09-14T14:43:37.337Z,25
2018-09-14T14:53:39.256Z,25
2018-09-14T15:03:41.385Z,25
2018-09-14T15:13:43.098Z,24.9
2018-09-14T15:23:44.585Z,25
2018-09-14T15:33:46.986Z,25.2
2018-09-14T15:43:49.595Z,25.2
2018-09-14T15:53:51.605Z,25.1
2018-09-14T16:03:53.652Z,25.3
2018-09-14T16:13:55.205Z,25.2
2018-09-14T16:23:57.353Z,25.2
2018-09-14T16:33:59.357Z,25.4
2018-09-14T16:44:01.146Z,25.4
2018-09-14T16:54:02.784Z,25.4
2018-09-14T17:04:05.149Z,25.5
2018-09-14T17:14:07.877Z,25.4
2018-09-14T17:24:09.653Z,25.5
2018-09-14T17:34:11.520Z,25.4
2018-09-14T19:25:35.989Z,27
2018-09-14T19:35:34.839Z,25.4
2018-09-14T19:45:36.460Z,24.6
2018-09-14T19:55:37.882Z,24.3
2018-09-14T20:05:39.615Z,23.9
2018-09-14T20:15:41.901Z,23.7
2018-09-14T20:25:43.818Z,23.5
2018-09-14T20:35:45.473Z,23.5
2018-09-14T20:45:47.093Z,23.6
2018-09-14T20:55:48.840Z,23.5
2018-09-14T21:05:50.822Z,23.4
2018-09-14T21:15:52.314Z,23.3
2018-09-14T21:25:53.927Z,23.3
2018-09-14T21:35:56.047Z,23.2
2018-09-14T21:45:58.141Z,23.1
2018-09-14T21:56:04.962Z,23.1
2018-09-14T22:06:06.764Z,23
2018-09-14T22:16:08.089Z,23
2018-09-14T22:26:10.116Z,22.9
2018-09-14T22:36:11.921Z,22.9
2018-09-14T22:46:13.320Z,22.8
2018-09-14T22:56:15.412Z,22.8
2018-09-14T23:06:16.894Z,22.7
2018-09-14T23:16:19.023Z,22.7
2018-09-14T23:26:21.128Z,22.7
2018-09-14T23:36:23.082Z,22.6
2018-09-14T23:46:24.722Z,22.6
2018-09-14T23:56:26.996Z,22.6
